sensor_id;sensor_type;location;lat;lon;timestamp;pressure;altitude;pressure_sealevel;temperature;humidity
13235;BME280;6683;48.506;9.050;2023-05-21T00:00:36;97666.72;;;17.86;55.89
13235;BME280;6683;48.506;9.050;2023-05-21T00:03:38;97656.28;;;17.85;56.12
13235;BME280;6683;48.506;9.050;2023-05-21T00:06:43;97668.00;;;17.84;56.26
13235;BME280;6683;48.506;9.050;2023-05-21T00:09:45;97662.94;;;17.82;56.33
13235;BME280;6683;48.506;9.050;2023-05-21T00:12:47;97654.34;;;17.80;56.40
13235;BME280;6683;48.506;9.050;2023-05-21T00:15:50;97646.84;;;17.77;56.50
13235;BME280;6683;48.506;9.050;2023-05-21T00:18:53;97657.44;;;17.72;56.59
13235;BME280;6683;48.506;9.050;2023-05-21T00:21:57;97654.47;;;17.69;56.53
13235;BME280;6683;48.506;9.050;2023-05-21T00:25:02;97647.44;;;17.63;56.77
13235;BME280;6683;48.506;9.050;2023-05-21T00:28:04;97646.06;;;17.60;56.83
13235;BME280;6683;48.506;9.050;2023-05-21T00:31:07;97650.84;;;17.58;56.89
13235;BME280;6683;48.506;9.050;2023-05-21T00:34:10;97645.97;;;17.55;57.16
13235;BME280;6683;48.506;9.050;2023-05-21T00:37:13;97644.59;;;17.52;57.13
13235;BME280;6683;48.506;9.050;2023-05-21T00:40:18;97634.44;;;17.49;57.34
13235;BME280;6683;48.506;9.050;2023-05-21T00:43:20;97637.31;;;17.48;57.10
13235;BME280;6683;48.506;9.050;2023-05-21T00:46:26;97639.06;;;17.42;57.20
13235;BME280;6683;48.506;9.050;2023-05-21T00:49:29;97634.72;;;17.36;57.20
13235;BME280;6683;48.506;9.050;2023-05-21T00:52:34;97633.50;;;17.27;57.10
13235;BME280;6683;48.506;9.050;2023-05-21T00:55:41;97636.34;;;17.21;57.26
13235;BME280;6683;48.506;9.050;2023-05-21T00:58:44;97626.88;;;17.13;57.47
13235;BME280;6683;48.506;9.050;2023-05-21T01:01:47;97634.56;;;17.10;57.38
13235;BME280;6683;48.506;9.050;2023-05-21T01:04:54;97642.22;;;17.06;57.59
13235;BME280;6683;48.506;9.050;2023-05-21T01:07:58;97633.31;;;17.01;57.59
13235;BME280;6683;48.506;9.050;2023-05-21T01:11:02;97630.59;;;16.96;57.83
13235;BME280;6683;48.506;9.050;2023-05-21T01:14:05;97630.81;;;16.94;58.13
13235;BME280;6683;48.506;9.050;2023-05-21T01:17:09;97633.16;;;16.91;57.89
13235;BME280;6683;48.506;9.050;2023-05-21T01:20:13;97631.19;;;16.86;57.97
13235;BME280;6683;48.506;9.050;2023-05-21T01:23:19;97635.63;;;16.81;58.00
13235;BME280;6683;48.506;9.050;2023-05-21T01:26:22;97629.16;;;16.76;58.07
13235;BME280;6683;48.506;9.050;2023-05-21T01:29:25;97628.25;;;16.71;58.25
13235;BME280;6683;48.506;9.050;2023-05-21T01:32:34;97627.84;;;16.62;58.33
13235;BME280;6683;48.506;9.050;2023-05-21T01:35:42;97629.13;;;16.60;58.70
13235;BME280;6683;48.506;9.050;2023-05-21T01:38:53;97626.13;;;16.56;58.53
13235;BME280;6683;48.506;9.050;2023-05-21T01:41:57;97629.28;;;16.53;58.58
13235;BME280;6683;48.506;9.050;2023-05-21T01:45:00;97624.75;;;16.54;58.92
13235;BME280;6683;48.506;9.050;2023-05-21T01:48:07;97621.53;;;16.52;58.83
13235;BME280;6683;48.506;9.050;2023-05-21T01:51:11;97613.53;;;16.52;59.04
13235;BME280;6683;48.506;9.050;2023-05-21T01:54:15;97612.47;;;16.53;58.83
13235;BME280;6683;48.506;9.050;2023-05-21T01:57:18;97609.81;;;16.53;59.23
13235;BME280;6683;48.506;9.050;2023-05-21T02:00:21;97610.63;;;16.53;59.31
13235;BME280;6683;48.506;9.050;2023-05-21T02:03:25;97607.94;;;16.53;59.37
13235;BME280;6683;48.506;9.050;2023-05-21T02:06:30;97623.13;;;16.53;59.43
13235;BME280;6683;48.506;9.050;2023-05-21T02:09:34;97610.88;;;16.52;59.27
13235;BME280;6683;48.506;9.050;2023-05-21T02:12:37;97611.91;;;16.51;59.61
13235;BME280;6683;48.506;9.050;2023-05-21T02:15:40;97613.13;;;16.48;59.53
13235;BME280;6683;48.506;9.050;2023-05-21T02:18:44;97612.00;;;16.44;59.47
13235;BME280;6683;48.506;9.050;2023-05-21T02:21:48;97614.66;;;16.44;59.61
13235;BME280;6683;48.506;9.050;2023-05-21T02:24:52;97617.81;;;16.41;59.72
13235;BME280;6683;48.506;9.050;2023-05-21T02:27:54;97613.53;;;16.40;59.73
13235;BME280;6683;48.506;9.050;2023-05-21T02:30:56;97610.53;;;16.37;59.77
13235;BME280;6683;48.506;9.050;2023-05-21T02:33:59;97604.63;;;16.35;59.79
13235;BME280;6683;48.506;9.050;2023-05-21T02:37:01;97608.56;;;16.32;59.93
13235;BME280;6683;48.506;9.050;2023-05-21T02:40:08;97605.59;;;16.29;60.03
13235;BME280;6683;48.506;9.050;2023-05-21T02:43:10;97594.13;;;16.28;60.08
13235;BME280;6683;48.506;9.050;2023-05-21T02:46:13;97607.44;;;16.28;60.28
13235;BME280;6683;48.506;9.050;2023-05-21T02:49:15;97605.81;;;16.27;60.27
13235;BME280;6683;48.506;9.050;2023-05-21T02:52:19;97610.09;;;16.28;60.18
13235;BME280;6683;48.506;9.050;2023-05-21T02:55:25;97597.50;;;16.24;60.20
13235;BME280;6683;48.506;9.050;2023-05-21T02:58:27;97600.41;;;16.22;60.26
13235;BME280;6683;48.506;9.050;2023-05-21T03:01:29;97609.41;;;16.21;60.33
13235;BME280;6683;48.506;9.050;2023-05-21T03:04:32;97604.78;;;16.17;60.65
13235;BME280;6683;48.506;9.050;2023-05-21T03:07:38;97603.44;;;16.14;60.56
13235;BME280;6683;48.506;9.050;2023-05-21T03:10:43;97594.88;;;16.12;60.36
13235;BME280;6683;48.506;9.050;2023-05-21T03:13:45;97594.31;;;16.10;60.61
13235;BME280;6683;48.506;9.050;2023-05-21T03:16:47;97591.84;;;16.09;60.65
13235;BME280;6683;48.506;9.050;2023-05-21T03:19:51;97592.09;;;16.07;60.73
13235;BME280;6683;48.506;9.050;2023-05-21T03:22:54;97592.09;;;16.07;60.63
13235;BME280;6683;48.506;9.050;2023-05-21T03:25:58;97593.63;;;16.03;60.73
13235;BME280;6683;48.506;9.050;2023-05-21T03:29:01;97590.94;;;16.03;60.92
13235;BME280;6683;48.506;9.050;2023-05-21T03:32:05;97589.56;;;16.00;60.65
13235;BME280;6683;48.506;9.050;2023-05-21T03:35:08;97600.22;;;16.00;60.81
13235;BME280;6683;48.506;9.050;2023-05-21T03:38:11;97590.06;;;15.97;60.83
13235;BME280;6683;48.506;9.050;2023-05-21T03:41:15;97594.31;;;15.98;60.89
13235;BME280;6683;48.506;9.050;2023-05-21T03:44:17;97586.56;;;15.97;60.78
13235;BME280;6683;48.506;9.050;2023-05-21T03:47:20;97583.59;;;15.93;60.60
13235;BME280;6683;48.506;9.050;2023-05-21T03:50:22;97589.59;;;15.89;60.79
13235;BME280;6683;48.506;9.050;2023-05-21T03:53:26;97591.91;;;15.85;60.52
13235;BME280;6683;48.506;9.050;2023-05-21T03:56:30;97594.13;;;15.77;60.61
13235;BME280;6683;48.506;9.050;2023-05-21T03:59:32;97597.84;;;15.76;60.89
13235;BME280;6683;48.506;9.050;2023-05-21T04:02:34;97599.09;;;15.73;60.57
13235;BME280;6683;48.506;9.050;2023-05-21T04:05:37;97601.44;;;15.70;60.89
13235;BME280;6683;48.506;9.050;2023-05-21T04:08:40;97609.84;;;15.67;60.81
13235;BME280;6683;48.506;9.050;2023-05-21T04:11:43;97605.25;;;15.62;60.87
13235;BME280;6683;48.506;9.050;2023-05-21T04:14:46;97612.88;;;15.59;60.91
13235;BME280;6683;48.506;9.050;2023-05-21T04:17:49;97606.16;;;15.56;60.79
13235;BME280;6683;48.506;9.050;2023-05-21T04:20:52;97618.09;;;15.54;61.03
13235;BME280;6683;48.506;9.050;2023-05-21T04:23:54;97618.31;;;15.52;61.19
13235;BME280;6683;48.506;9.050;2023-05-21T04:26:59;97617.72;;;15.50;61.11
13235;BME280;6683;48.506;9.050;2023-05-21T04:30:02;97626.28;;;15.52;61.27
13235;BME280;6683;48.506;9.050;2023-05-21T04:33:04;97638.31;;;15.55;61.24
13235;BME280;6683;48.506;9.050;2023-05-21T04:36:07;97637.88;;;15.58;61.49
13235;BME280;6683;48.506;9.050;2023-05-21T04:39:11;97640.88;;;15.61;61.54
13235;BME280;6683;48.506;9.050;2023-05-21T04:42:15;97644.94;;;15.64;61.84
13235;BME280;6683;48.506;9.050;2023-05-21T04:45:19;97645.59;;;15.71;61.50
13235;BME280;6683;48.506;9.050;2023-05-21T04:48:26;97649.44;;;15.75;61.60
13235;BME280;6683;48.506;9.050;2023-05-21T04:51:29;97646.06;;;15.79;61.76
13235;BME280;6683;48.506;9.050;2023-05-21T04:54:31;97649.66;;;15.85;61.77
13235;BME280;6683;48.506;9.050;2023-05-21T04:57:35;97654.88;;;15.91;61.92
13235;BME280;6683;48.506;9.050;2023-05-21T05:00:38;97658.69;;;15.95;61.58
13235;BME280;6683;48.506;9.050;2023-05-21T05:03:41;97653.94;;;15.97;61.81
13235;BME280;6683;48.506;9.050;2023-05-21T05:06:44;97656.69;;;16.02;61.83
13235;BME280;6683;48.506;9.050;2023-05-21T05:09:47;97654.97;;;16.08;62.08
13235;BME280;6683;48.506;9.050;2023-05-21T05:12:50;97655.06;;;16.13;62.05
13235;BME280;6683;48.506;9.050;2023-05-21T05:15:53;97657.34;;;16.21;62.05
13235;BME280;6683;48.506;9.050;2023-05-21T05:18:57;97655.13;;;16.30;61.97
13235;BME280;6683;48.506;9.050;2023-05-21T05:21:59;97658.22;;;16.38;61.97
13235;BME280;6683;48.506;9.050;2023-05-21T05:25:01;97652.78;;;16.45;61.81
13235;BME280;6683;48.506;9.050;2023-05-21T05:28:05;97657.44;;;16.49;61.99
13235;BME280;6683;48.506;9.050;2023-05-21T05:31:08;97653.00;;;16.55;62.03
13235;BME280;6683;48.506;9.050;2023-05-21T05:34:11;97659.25;;;16.60;62.00
13235;BME280;6683;48.506;9.050;2023-05-21T05:37:13;97647.66;;;16.66;61.96
13235;BME280;6683;48.506;9.050;2023-05-21T05:40:16;97641.09;;;16.74;61.99
13235;BME280;6683;48.506;9.050;2023-05-21T05:43:20;97651.06;;;16.78;62.09
13235;BME280;6683;48.506;9.050;2023-05-21T05:46:23;97647.44;;;16.85;61.90
13235;BME280;6683;48.506;9.050;2023-05-21T05:49:26;97646.22;;;16.92;61.88
13235;BME280;6683;48.506;9.050;2023-05-21T05:52:28;97646.06;;;16.99;61.96
13235;BME280;6683;48.506;9.050;2023-05-21T05:55:31;97652.91;;;17.06;61.92
13235;BME280;6683;48.506;9.050;2023-05-21T05:58:37;97648.19;;;17.13;62.02
13235;BME280;6683;48.506;9.050;2023-05-21T06:01:40;97651.78;;;17.19;61.88
13235;BME280;6683;48.506;9.050;2023-05-21T06:04:43;97644.09;;;17.22;61.77
13235;BME280;6683;48.506;9.050;2023-05-21T06:07:46;97657.84;;;17.31;61.82
13235;BME280;6683;48.506;9.050;2023-05-21T06:10:48;97656.63;;;17.38;61.66
13235;BME280;6683;48.506;9.050;2023-05-21T06:13:52;97656.47;;;17.45;61.70
13235;BME280;6683;48.506;9.050;2023-05-21T06:16:55;97662.72;;;17.50;61.63
13235;BME280;6683;48.506;9.050;2023-05-21T06:19:57;97661.72;;;17.56;61.61
13235;BME280;6683;48.506;9.050;2023-05-21T06:23:00;97656.22;;;17.63;61.69
13235;BME280;6683;48.506;9.050;2023-05-21T06:26:02;97652.34;;;17.71;61.70
13235;BME280;6683;48.506;9.050;2023-05-21T06:29:06;97654.34;;;17.80;61.56
13235;BME280;6683;48.506;9.050;2023-05-21T06:32:09;97656.94;;;17.92;61.54
13235;BME280;6683;48.506;9.050;2023-05-21T06:35:12;97660.63;;;18.07;61.29
13235;BME280;6683;48.506;9.050;2023-05-21T06:38:14;97655.97;;;18.19;61.43
13235;BME280;6683;48.506;9.050;2023-05-21T06:41:17;97657.47;;;18.32;61.37
13235;BME280;6683;48.506;9.050;2023-05-21T06:44:22;97651.66;;;18.40;61.21
13235;BME280;6683;48.506;9.050;2023-05-21T06:47:24;97655.06;;;18.52;61.02
13235;BME280;6683;48.506;9.050;2023-05-21T06:50:27;97659.22;;;18.65;61.06
13235;BME280;6683;48.506;9.050;2023-05-21T06:53:29;97657.78;;;18.79;60.95
13235;BME280;6683;48.506;9.050;2023-05-21T06:56:31;97643.75;;;18.93;60.75
13235;BME280;6683;48.506;9.050;2023-05-21T06:59:36;97649.75;;;19.05;60.43
13235;BME280;6683;48.506;9.050;2023-05-21T07:02:38;97644.75;;;19.14;60.40
13235;BME280;6683;48.506;9.050;2023-05-21T07:05:40;97649.38;;;19.24;60.24
13235;BME280;6683;48.506;9.050;2023-05-21T07:08:43;97649.78;;;19.37;60.41
13235;BME280;6683;48.506;9.050;2023-05-21T07:11:47;97654.47;;;19.52;60.14
13235;BME280;6683;48.506;9.050;2023-05-21T07:14:51;97644.09;;;19.65;60.29
13235;BME280;6683;48.506;9.050;2023-05-21T07:17:54;97651.19;;;19.81;60.14
13235;BME280;6683;48.506;9.050;2023-05-21T07:20:56;97649.13;;;19.93;59.97
13235;BME280;6683;48.506;9.050;2023-05-21T07:24:09;97646.50;;;20.04;59.90
13235;BME280;6683;48.506;9.050;2023-05-21T07:27:11;97642.53;;;20.16;59.49
13235;BME280;6683;48.506;9.050;2023-05-21T07:30:15;97645.28;;;20.26;59.48
13235;BME280;6683;48.506;9.050;2023-05-21T07:33:18;97640.28;;;20.40;59.06
13235;BME280;6683;48.506;9.050;2023-05-21T07:36:22;97648.66;;;20.63;59.15
13235;BME280;6683;48.506;9.050;2023-05-21T07:39:25;97642.81;;;20.82;58.54
13235;BME280;6683;48.506;9.050;2023-05-21T07:42:27;97630.50;;;20.96;58.40
13235;BME280;6683;48.506;9.050;2023-05-21T07:45:32;97637.78;;;21.05;57.98
13235;BME280;6683;48.506;9.050;2023-05-21T07:48:34;97628.41;;;21.13;58.02
13235;BME280;6683;48.506;9.050;2023-05-21T07:51:36;97629.75;;;21.25;58.09
13235;BME280;6683;48.506;9.050;2023-05-21T07:54:39;97635.13;;;21.45;57.82
13235;BME280;6683;48.506;9.050;2023-05-21T07:57:41;97632.69;;;21.69;57.40
13235;BME280;6683;48.506;9.050;2023-05-21T08:00:47;97634.81;;;21.92;56.61
13235;BME280;6683;48.506;9.050;2023-05-21T08:03:51;97638.25;;;22.13;56.35
13235;BME280;6683;48.506;9.050;2023-05-21T08:06:53;97634.44;;;22.29;55.94
13235;BME280;6683;48.506;9.050;2023-05-21T08:09:56;97631.41;;;22.46;55.29
13235;BME280;6683;48.506;9.050;2023-05-21T08:12:59;97629.47;;;22.56;54.99
13235;BME280;6683;48.506;9.050;2023-05-21T08:16:04;97628.34;;;22.72;54.61
13235;BME280;6683;48.506;9.050;2023-05-21T08:19:07;97628.25;;;22.87;54.11
13235;BME280;6683;48.506;9.050;2023-05-21T08:22:09;97628.16;;;23.02;53.64
13235;BME280;6683;48.506;9.050;2023-05-21T08:25:12;97623.75;;;23.17;53.68
13235;BME280;6683;48.506;9.050;2023-05-21T08:28:14;97623.09;;;23.35;53.37
13235;BME280;6683;48.506;9.050;2023-05-21T08:31:19;97622.41;;;23.53;52.72
13235;BME280;6683;48.506;9.050;2023-05-21T08:34:21;97616.31;;;23.71;52.39
13235;BME280;6683;48.506;9.050;2023-05-21T08:37:24;97620.97;;;23.89;51.73
13235;BME280;6683;48.506;9.050;2023-05-21T08:40:27;97617.41;;;23.94;51.60
13235;BME280;6683;48.506;9.050;2023-05-21T08:43:30;97616.56;;;23.98;51.28
13235;BME280;6683;48.506;9.050;2023-05-21T08:46:34;97611.31;;;24.12;51.25
13235;BME280;6683;48.506;9.050;2023-05-21T08:49:37;97607.88;;;24.30;51.35
13235;BME280;6683;48.506;9.050;2023-05-21T08:52:42;97614.03;;;24.54;51.00
13235;BME280;6683;48.506;9.050;2023-05-21T08:55:50;97610.69;;;24.62;50.30
13235;BME280;6683;48.506;9.050;2023-05-21T08:58:54;97616.53;;;24.69;50.02
13235;BME280;6683;48.506;9.050;2023-05-21T09:01:59;97618.25;;;24.84;49.72
13235;BME280;6683;48.506;9.050;2023-05-21T09:05:01;97622.84;;;25.02;49.30
13235;BME280;6683;48.506;9.050;2023-05-21T09:08:07;97613.13;;;25.19;48.70
13235;BME280;6683;48.506;9.050;2023-05-21T09:11:14;97607.50;;;25.34;48.80
13235;BME280;6683;48.506;9.050;2023-05-21T09:14:18;97609.75;;;25.46;48.33
13235;BME280;6683;48.506;9.050;2023-05-21T09:17:22;97607.97;;;25.55;48.02
13235;BME280;6683;48.506;9.050;2023-05-21T09:20:26;97610.38;;;25.70;47.65
13235;BME280;6683;48.506;9.050;2023-05-21T09:23:32;97602.50;;;25.87;47.50
13235;BME280;6683;48.506;9.050;2023-05-21T09:26:37;97600.41;;;25.98;47.10
13235;BME280;6683;48.506;9.050;2023-05-21T09:29:43;97604.47;;;26.14;46.99
13235;BME280;6683;48.506;9.050;2023-05-21T09:32:53;97609.38;;;26.26;47.08
13235;BME280;6683;48.506;9.050;2023-05-21T09:35:57;97601.06;;;26.36;46.76
13235;BME280;6683;48.506;9.050;2023-05-21T09:39:00;97598.94;;;26.46;46.23
13235;BME280;6683;48.506;9.050;2023-05-21T09:42:03;97604.44;;;26.55;46.03
13235;BME280;6683;48.506;9.050;2023-05-21T09:45:07;97602.09;;;26.62;45.75
13235;BME280;6683;48.506;9.050;2023-05-21T09:48:12;97596.53;;;26.72;45.74
13235;BME280;6683;48.506;9.050;2023-05-21T09:51:16;97595.59;;;26.76;45.13
13235;BME280;6683;48.506;9.050;2023-05-21T09:54:21;97603.94;;;26.80;45.23
13235;BME280;6683;48.506;9.050;2023-05-21T09:57:24;97594.81;;;26.76;45.06
13235;BME280;6683;48.506;9.050;2023-05-21T10:00:27;97596.22;;;26.73;45.03
13235;BME280;6683;48.506;9.050;2023-05-21T10:03:33;97595.91;;;26.75;44.92
13235;BME280;6683;48.506;9.050;2023-05-21T10:06:42;97598.50;;;26.80;44.73
13235;BME280;6683;48.506;9.050;2023-05-21T10:09:46;97595.06;;;26.88;44.67
13235;BME280;6683;48.506;9.050;2023-05-21T10:12:54;97596.94;;;27.01;44.67
13235;BME280;6683;48.506;9.050;2023-05-21T10:16:01;97598.28;;;27.12;44.89
13235;BME280;6683;48.506;9.050;2023-05-21T10:19:06;97592.44;;;27.19;44.46
13235;BME280;6683;48.506;9.050;2023-05-21T10:22:10;97586.09;;;27.23;44.20
13235;BME280;6683;48.506;9.050;2023-05-21T10:25:14;97588.97;;;27.27;44.04
13235;BME280;6683;48.506;9.050;2023-05-21T10:28:17;97585.34;;;27.31;43.93
13235;BME280;6683;48.506;9.050;2023-05-21T10:31:20;97584.97;;;27.38;43.70
13235;BME280;6683;48.506;9.050;2023-05-21T10:34:41;97587.72;;;27.46;43.87
13235;BME280;6683;48.506;9.050;2023-05-21T10:37:45;97585.13;;;27.63;43.35
13235;BME280;6683;48.506;9.050;2023-05-21T10:40:48;97579.75;;;27.72;42.91
13235;BME280;6683;48.506;9.050;2023-05-21T10:43:58;97583.72;;;27.75;42.97
13235;BME280;6683;48.506;9.050;2023-05-21T10:47:37;97583.75;;;27.83;43.17
13235;BME280;6683;48.506;9.050;2023-05-21T10:51:14;97573.59;;;27.89;42.80
13235;BME280;6683;48.506;9.050;2023-05-21T10:55:03;97571.66;;;27.89;43.11
13235;BME280;6683;48.506;9.050;2023-05-21T10:58:55;97577.09;;;27.89;42.75
13235;BME280;6683;48.506;9.050;2023-05-21T11:02:03;97573.94;;;27.96;42.26
13235;BME280;6683;48.506;9.050;2023-05-21T11:05:07;97572.69;;;28.02;42.42
13235;BME280;6683;48.506;9.050;2023-05-21T11:08:25;97576.22;;;28.02;42.02
13235;BME280;6683;48.506;9.050;2023-05-21T11:11:40;97573.38;;;28.07;41.59
13235;BME280;6683;48.506;9.050;2023-05-21T11:14:56;97575.00;;;28.17;41.79
13235;BME280;6683;48.506;9.050;2023-05-21T11:17:58;97573.25;;;28.21;41.31
13235;BME280;6683;48.506;9.050;2023-05-21T11:21:03;97563.19;;;28.21;41.33
13235;BME280;6683;48.506;9.050;2023-05-21T11:24:08;97576.16;;;28.24;41.10
13235;BME280;6683;48.506;9.050;2023-05-21T11:27:10;97567.19;;;28.24;41.25
13235;BME280;6683;48.506;9.050;2023-05-21T11:30:16;97570.72;;;28.24;40.98
13235;BME280;6683;48.506;9.050;2023-05-21T11:33:18;97567.38;;;28.27;40.90
13235;BME280;6683;48.506;9.050;2023-05-21T11:36:21;97571.03;;;28.31;40.89
13235;BME280;6683;48.506;9.050;2023-05-21T11:39:25;97568.03;;;28.41;40.79
13235;BME280;6683;48.506;9.050;2023-05-21T11:42:31;97579.38;;;28.52;40.46
13235;BME280;6683;48.506;9.050;2023-05-21T11:45:33;97572.41;;;28.60;40.78
13235;BME280;6683;48.506;9.050;2023-05-21T11:48:36;97571.31;;;28.69;40.37
13235;BME280;6683;48.506;9.050;2023-05-21T11:51:39;97569.88;;;28.80;40.41
13235;BME280;6683;48.506;9.050;2023-05-21T11:54:45;97571.00;;;28.88;40.09
13235;BME280;6683;48.506;9.050;2023-05-21T11:57:52;97570.03;;;29.01;39.93
13235;BME280;6683;48.506;9.050;2023-05-21T12:00:55;97572.31;;;29.16;39.45
13235;BME280;6683;48.506;9.050;2023-05-21T12:03:57;97565.56;;;29.31;39.27
13235;BME280;6683;48.506;9.050;2023-05-21T12:07:03;97568.75;;;29.50;38.82
13235;BME280;6683;48.506;9.050;2023-05-21T12:10:10;97572.88;;;29.64;38.80
13235;BME280;6683;48.506;9.050;2023-05-21T12:13:13;97569.97;;;29.78;38.33
13235;BME280;6683;48.506;9.050;2023-05-21T12:16:16;97560.63;;;29.87;37.86
13235;BME280;6683;48.506;9.050;2023-05-21T12:19:18;97563.63;;;30.03;37.91
13235;BME280;6683;48.506;9.050;2023-05-21T12:22:22;97561.44;;;30.17;37.37
13235;BME280;6683;48.506;9.050;2023-05-21T12:25:27;97560.59;;;30.25;36.71
13235;BME280;6683;48.506;9.050;2023-05-21T12:28:29;97563.31;;;30.25;36.89
13235;BME280;6683;48.506;9.050;2023-05-21T12:31:32;97563.31;;;30.25;36.78
13235;BME280;6683;48.506;9.050;2023-05-21T12:34:42;97573.91;;;30.27;36.49
13235;BME280;6683;48.506;9.050;2023-05-21T12:37:46;97562.19;;;30.35;36.71
13235;BME280;6683;48.506;9.050;2023-05-21T12:40:51;97565.19;;;30.42;36.35
13235;BME280;6683;48.506;9.050;2023-05-21T12:43:54;97571.25;;;30.47;36.11
13235;BME280;6683;48.506;9.050;2023-05-21T12:46:57;97566.41;;;30.53;35.95
13235;BME280;6683;48.506;9.050;2023-05-21T12:50:00;97566.22;;;30.58;35.43
13235;BME280;6683;48.506;9.050;2023-05-21T12:53:03;97572.78;;;30.57;35.38
13235;BME280;6683;48.506;9.050;2023-05-21T12:56:09;97571.50;;;30.54;35.24
13235;BME280;6683;48.506;9.050;2023-05-21T12:59:12;97577.31;;;30.53;34.71
13235;BME280;6683;48.506;9.050;2023-05-21T13:02:18;97568.53;;;30.47;34.71
13235;BME280;6683;48.506;9.050;2023-05-21T13:05:21;97579.66;;;30.34;34.87
13235;BME280;6683;48.506;9.050;2023-05-21T13:08:24;97577.16;;;30.20;34.99
13235;BME280;6683;48.506;9.050;2023-05-21T13:11:27;97571.28;;;30.10;34.82
13235;BME280;6683;48.506;9.050;2023-05-21T13:14:30;97578.06;;;29.95;34.82
13235;BME280;6683;48.506;9.050;2023-05-21T13:17:32;97566.59;;;29.81;34.58
13235;BME280;6683;48.506;9.050;2023-05-21T13:20:35;97573.31;;;29.75;34.93
13235;BME280;6683;48.506;9.050;2023-05-21T13:23:38;97568.84;;;29.70;35.00
13235;BME280;6683;48.506;9.050;2023-05-21T13:26:42;97575.25;;;29.66;34.55
13235;BME280;6683;48.506;9.050;2023-05-21T13:29:46;97563.25;;;29.58;34.43
13235;BME280;6683;48.506;9.050;2023-05-21T13:32:48;97572.72;;;29.52;34.81
13235;BME280;6683;48.506;9.050;2023-05-21T13:35:51;97571.94;;;29.43;34.94
13235;BME280;6683;48.506;9.050;2023-05-21T13:38:54;97573.53;;;29.36;34.49
13235;BME280;6683;48.506;9.050;2023-05-21T13:41:58;97577.41;;;29.26;34.83
13235;BME280;6683;48.506;9.050;2023-05-21T13:45:01;97579.31;;;29.17;34.77
13235;BME280;6683;48.506;9.050;2023-05-21T13:48:04;97574.66;;;29.09;34.67
13235;BME280;6683;48.506;9.050;2023-05-21T13:51:07;97576.91;;;28.98;34.75
13235;BME280;6683;48.506;9.050;2023-05-21T13:54:09;97577.56;;;28.87;34.78
13235;BME280;6683;48.506;9.050;2023-05-21T13:57:15;97577.56;;;28.78;35.01
13235;BME280;6683;48.506;9.050;2023-05-21T14:00:18;97582.03;;;28.74;35.35
13235;BME280;6683;48.506;9.050;2023-05-21T14:03:20;97578.03;;;28.72;35.33
13235;BME280;6683;48.506;9.050;2023-05-21T14:06:22;97573.69;;;28.71;35.35
13235;BME280;6683;48.506;9.050;2023-05-21T14:09:25;97575.63;;;28.70;35.37
13235;BME280;6683;48.506;9.050;2023-05-21T14:12:29;97577.53;;;28.70;35.47
13235;BME280;6683;48.506;9.050;2023-05-21T14:15:33;97570.81;;;28.67;35.46
13235;BME280;6683;48.506;9.050;2023-05-21T14:18:36;97573.38;;;28.64;35.37
13235;BME280;6683;48.506;9.050;2023-05-21T14:21:39;97563.94;;;28.61;34.89
13235;BME280;6683;48.506;9.050;2023-05-21T14:24:41;97560.75;;;28.59;35.14
13235;BME280;6683;48.506;9.050;2023-05-21T14:27:45;97556.91;;;28.60;35.30
13235;BME280;6683;48.506;9.050;2023-05-21T14:30:48;97555.31;;;28.59;35.08
13235;BME280;6683;48.506;9.050;2023-05-21T14:33:51;97552.59;;;28.59;35.15
13235;BME280;6683;48.506;9.050;2023-05-21T14:36:53;97556.59;;;28.62;35.11
13235;BME280;6683;48.506;9.050;2023-05-21T14:39:56;97548.75;;;28.60;35.10
13235;BME280;6683;48.506;9.050;2023-05-21T14:42:59;97560.09;;;28.62;35.22
13235;BME280;6683;48.506;9.050;2023-05-21T14:46:02;97550.69;;;28.60;35.18
13235;BME280;6683;48.506;9.050;2023-05-21T14:49:04;97552.28;;;28.61;35.44
13235;BME280;6683;48.506;9.050;2023-05-21T14:52:07;97551.47;;;28.60;35.34
13235;BME280;6683;48.506;9.050;2023-05-21T14:55:09;97546.22;;;28.64;35.41
13235;BME280;6683;48.506;9.050;2023-05-21T14:58:15;97553.25;;;28.65;34.94
13235;BME280;6683;48.506;9.050;2023-05-21T15:01:17;97553.56;;;28.63;35.00
13235;BME280;6683;48.506;9.050;2023-05-21T15:04:20;97544.94;;;28.61;35.25
13235;BME280;6683;48.506;9.050;2023-05-21T15:07:22;97550.03;;;28.63;35.15
13235;BME280;6683;48.506;9.050;2023-05-21T15:10:26;97543.19;;;28.65;34.82
13235;BME280;6683;48.506;9.050;2023-05-21T15:13:30;97540.47;;;28.65;34.71
13235;BME280;6683;48.506;9.050;2023-05-21T15:16:33;97530.09;;;28.67;34.54
13235;BME280;6683;48.506;9.050;2023-05-21T15:19:36;97538.09;;;28.72;34.60
13235;BME280;6683;48.506;9.050;2023-05-21T15:22:40;97526.75;;;28.79;34.63
13235;BME280;6683;48.506;9.050;2023-05-21T15:25:42;97528.19;;;28.85;34.32
13235;BME280;6683;48.506;9.050;2023-05-21T15:28:46;97522.25;;;28.91;34.03
13235;BME280;6683;48.506;9.050;2023-05-21T15:31:48;97533.91;;;29.00;34.06
13235;BME280;6683;48.506;9.050;2023-05-21T15:34:51;97528.31;;;29.05;34.26
13235;BME280;6683;48.506;9.050;2023-05-21T15:37:53;97537.44;;;29.09;33.69
13235;BME280;6683;48.506;9.050;2023-05-21T15:40:56;97543.50;;;29.15;33.76
13235;BME280;6683;48.506;9.050;2023-05-21T15:44:00;97543.03;;;29.21;33.53
13235;BME280;6683;48.506;9.050;2023-05-21T15:47:03;97539.50;;;29.30;33.31
13235;BME280;6683;48.506;9.050;2023-05-21T15:50:08;97539.47;;;29.38;33.51
13235;BME280;6683;48.506;9.050;2023-05-21T15:53:11;97538.31;;;29.48;33.15
13235;BME280;6683;48.506;9.050;2023-05-21T15:56:14;97541.69;;;29.53;32.74
13235;BME280;6683;48.506;9.050;2023-05-21T15:59:18;97545.50;;;29.61;32.88
13235;BME280;6683;48.506;9.050;2023-05-21T16:02:20;97549.16;;;29.65;32.71
13235;BME280;6683;48.506;9.050;2023-05-21T16:05:23;97545.66;;;29.64;32.22
13235;BME280;6683;48.506;9.050;2023-05-21T16:08:25;97555.25;;;29.62;32.12
13235;BME280;6683;48.506;9.050;2023-05-21T16:11:28;97541.69;;;29.53;32.10
13235;BME280;6683;48.506;9.050;2023-05-21T16:14:32;97537.84;;;29.46;31.99
13235;BME280;6683;48.506;9.050;2023-05-21T16:17:35;97548.78;;;29.37;31.97
13235;BME280;6683;48.506;9.050;2023-05-21T16:20:37;97536.28;;;29.28;32.10
13235;BME280;6683;48.506;9.050;2023-05-21T16:23:40;97539.50;;;29.21;32.25
13235;BME280;6683;48.506;9.050;2023-05-21T16:26:43;97536.47;;;29.14;32.24